Time;durP1;ratioP1;P1;durP2;ratioP2;P2;SDS_P1;SDS_P2;PMS_P1;PMS_P2;Temp;Humidity;BMP_temperature;BMP_pressure;BME280_temperature;BME280_humidity;BME280_pressure;Samples;Min_cycle;Max_cycle;Signal;HPM_P1;HPM_P2
2021/08/11 00:01:54;;;;;;;5.78;2.45;;;22.20;99.90;;;;;;5064315;28;20297;-76
2021/08/11 00:04:23;;;;;;;1.80;1.70;;;22.20;99.90;;;;;;5065316;28;20214;-75
2021/08/11 00:06:50;;;;;;;2.22;2.13;;;22.10;99.90;;;;;;5064393;28;20234;-75
2021/08/11 00:09:17;;;;;;;1.90;1.77;;;22.10;99.90;;;;;;5069072;28;20234;-75
2021/08/11 00:11:44;;;;;;;2.40;2.17;;;22.10;99.90;;;;;;5059521;28;20223;-75
2021/08/11 00:14:11;;;;;;;2.22;2.00;;;22.00;99.90;;;;;;5062968;28;20666;-76
2021/08/11 00:16:38;;;;;;;2.40;2.20;;;22.00;99.90;;;;;;5066877;28;20305;-76
2021/08/11 00:19:05;;;;;;;2.10;1.90;;;21.90;99.90;;;;;;5061344;28;20217;-76
2021/08/11 00:21:33;;;;;;;2.10;1.90;;;21.90;99.90;;;;;;5065440;28;20271;-76
2021/08/11 00:24:00;;;;;;;2.38;2.17;;;21.90;99.90;;;;;;5059746;28;20222;-77
2021/08/11 00:26:27;;;;;;;2.30;2.10;;;21.80;99.90;;;;;;5066945;28;20222;-75
2021/08/11 00:28:54;;;;;;;1.98;1.85;;;21.80;99.90;;;;;;5063705;28;20237;-77
2021/08/11 00:31:21;;;;;;;2.00;1.90;;;21.80;99.90;;;;;;5062310;28;20502;-74
2021/08/11 00:33:48;;;;;;;2.17;1.98;;;21.80;99.90;;;;;;5063687;28;20218;-75
2021/08/11 00:36:15;;;;;;;2.10;2.00;;;21.80;99.90;;;;;;5062991;28;20643;-76
2021/08/11 00:38:43;;;;;;;2.28;2.03;;;21.80;99.90;;;;;;5063752;28;20221;-75
2021/08/11 00:41:10;;;;;;;2.40;2.20;;;21.70;99.90;;;;;;5063063;28;20226;-75
2021/08/11 00:43:38;;;;;;;2.22;2.08;;;21.70;99.90;;;;;;5061199;28;20241;-76
2021/08/11 00:46:08;;;;;;;2.10;2.00;;;21.70;99.90;;;;;;5058790;28;20211;-76
2021/08/11 00:48:38;;;;;;;2.20;2.03;;;21.70;99.90;;;;;;5063138;28;20226;-75
2021/08/11 00:51:06;;;;;;;2.30;2.10;;;21.60;99.90;;;;;;5063456;28;20210;-76
2021/08/11 00:53:34;;;;;;;2.30;2.10;;;21.70;99.90;;;;;;5060798;28;20226;-76
2021/08/11 00:56:02;;;;;;;2.30;2.10;;;21.60;99.90;;;;;;5062592;28;20663;-76
2021/08/11 00:58:31;;;;;;;2.40;2.10;;;21.60;99.90;;;;;;5060474;28;20273;-76
2021/08/11 01:01:00;;;;;;;2.53;2.13;;;21.60;99.90;;;;;;5064535;28;20214;-76
2021/08/11 01:03:27;;;;;;;2.55;2.35;;;21.60;99.90;;;;;;5062052;28;20258;-76
2021/08/11 01:05:57;;;;;;;2.42;2.22;;;21.60;99.90;;;;;;5059782;28;20269;-75
2021/08/11 01:08:25;;;;;;;2.58;2.33;;;21.60;99.90;;;;;;5063753;28;20229;-76
2021/08/11 01:10:52;;;;;;;2.85;2.50;;;21.50;99.90;;;;;;5065498;28;20221;-76
2021/08/11 01:13:22;;;;;;;2.63;2.42;;;21.50;99.90;;;;;;5068502;28;20292;-76
2021/08/11 01:15:49;;;;;;;2.50;2.30;;;21.50;99.90;;;;;;5064790;28;20719;-76
2021/08/11 01:18:17;;;;;;;2.97;2.28;;;21.50;99.90;;;;;;5066010;28;20226;-76
2021/08/11 01:20:50;;;;;;;4.60;2.10;;;21.40;99.90;;;;;;5065306;28;20573;-76
2021/08/11 01:23:23;;;;;;;2.50;2.30;;;21.40;99.90;;;;;;5068930;28;20226;-76
2021/08/11 01:25:55;;;;;;;2.83;2.60;;;21.40;99.90;;;;;;5066198;28;20663;-77
2021/08/11 01:28:44;;;;;;;2.60;2.40;;;21.30;99.90;;;;;;5067426;28;20221;-76
2021/08/11 01:31:17;;;;;;;2.40;2.20;;;21.30;99.90;;;;;;5063313;28;20228;-76
2021/08/11 01:33:52;;;;;;;3.35;2.30;;;21.20;99.90;;;;;;5064785;28;20219;-76
2021/08/11 01:36:34;;;;;;;2.80;2.60;;;21.20;99.90;;;;;;5065345;28;20225;-77
2021/08/11 01:39:04;;;;;;;2.90;2.50;;;21.10;99.90;;;;;;5066143;28;20781;-76
2021/08/11 01:41:36;;;;;;;2.90;2.70;;;21.10;99.90;;;;;;5061936;28;20221;-76
2021/08/11 01:44:06;;;;;;;2.78;2.40;;;21.10;99.90;;;;;;5064225;28;20759;-77
2021/08/11 01:46:36;;;;;;;2.60;2.40;;;21.00;99.90;;;;;;5064983;28;20226;-76
2021/08/11 01:49:09;;;;;;;3.08;2.50;;;21.00;99.90;;;;;;5067001;28;20222;-76
2021/08/11 01:51:38;;;;;;;2.20;2.00;;;21.00;99.90;;;;;;5062672;28;20704;-76
2021/08/11 01:54:07;;;;;;;3.35;2.50;;;21.00;99.90;;;;;;5063835;28;20225;-76
2021/08/11 01:56:35;;;;;;;2.70;2.50;;;21.00;99.90;;;;;;5064276;28;20786;-76
2021/08/11 01:59:03;;;;;;;3.13;2.83;;;21.00;99.90;;;;;;5063213;28;20314;-76
2021/08/11 02:01:31;;;;;;;2.67;2.47;;;21.00;99.90;;;;;;5064159;28;20309;-76
2021/08/11 02:03:58;;;;;;;2.50;2.30;;;21.00;99.90;;;;;;5066208;28;20222;-76
2021/08/11 02:06:29;;;;;;;2.53;2.33;;;21.00;99.90;;;;;;5058087;28;20276;-76
2021/08/11 02:08:57;;;;;;;3.15;2.67;;;21.00;99.90;;;;;;5056357;28;20277;-77
2021/08/11 02:11:25;;;;;;;2.60;2.40;;;21.00;99.90;;;;;;5061958;28;20222;-76
2021/08/11 02:13:52;;;;;;;3.35;2.65;;;21.00;99.90;;;;;;5058837;28;20304;-76
2021/08/11 02:16:20;;;;;;;2.60;2.40;;;20.90;99.90;;;;;;5064337;28;20890;-77
2021/08/11 02:18:47;;;;;;;2.47;2.28;;;20.90;99.90;;;;;;5060596;28;20245;-76
2021/08/11 02:21:14;;;;;;;4.28;2.97;;;20.90;99.90;;;;;;5061539;28;20219;-76
2021/08/11 02:23:42;;;;;;;3.85;2.30;;;20.90;99.90;;;;;;5061846;28;20678;-76
2021/08/11 02:26:18;;;;;;;3.60;2.60;;;20.90;99.90;;;;;;5064672;28;20291;-76
2021/08/11 02:28:52;;;;;;;2.90;2.70;;;20.90;99.90;;;;;;5065571;28;20676;-76
2021/08/11 02:31:33;;;;;;;2.60;2.40;;;20.80;99.90;;;;;;5063089;28;20554;-76
2021/08/11 02:34:07;;;;;;;2.92;2.53;;;20.80;99.90;;;;;;5060734;28;20280;-75
2021/08/11 02:36:43;;;;;;;3.10;2.50;;;20.70;99.90;;;;;;5065071;28;20271;-77
2021/08/11 02:39:14;;;;;;;3.60;2.95;;;20.70;99.90;;;;;;5069617;28;20233;-76
2021/08/11 02:41:49;;;;;;;3.33;2.72;;;20.70;99.90;;;;;;5063319;28;20238;-77
2021/08/11 02:44:22;;;;;;;2.90;2.70;;;20.70;99.90;;;;;;5064872;28;20217;-76
2021/08/11 02:46:50;;;;;;;2.70;2.50;;;20.60;99.90;;;;;;5065998;28;20222;-76
2021/08/11 02:49:22;;;;;;;2.72;2.53;;;20.60;99.90;;;;;;5062189;28;20218;-76
2021/08/11 02:51:50;;;;;;;3.22;2.92;;;20.60;99.90;;;;;;5063981;28;20756;-76
2021/08/11 02:54:20;;;;;;;2.72;2.53;;;20.60;99.90;;;;;;5065466;28;20704;-76
2021/08/11 02:56:49;;;;;;;2.92;2.72;;;20.60;99.90;;;;;;5064993;28;20223;-76
2021/08/11 02:59:17;;;;;;;3.50;3.17;;;20.60;99.90;;;;;;5064267;28;20284;-76
2021/08/11 03:01:45;;;;;;;3.13;2.80;;;20.50;99.90;;;;;;5060745;28;20279;-75
2021/08/11 03:04:12;;;;;;;2.92;2.70;;;20.50;99.90;;;;;;5060032;28;20248;-77
2021/08/11 03:06:40;;;;;;;2.95;2.70;;;20.50;99.90;;;;;;5060657;28;20229;-77
2021/08/11 03:09:08;;;;;;;2.70;2.50;;;20.40;99.90;;;;;;5062973;28;20229;-76
2021/08/11 03:11:38;;;;;;;2.75;2.55;;;20.30;99.90;;;;;;5064210;28;20272;-77
2021/08/11 03:14:07;;;;;;;3.10;2.90;;;20.30;99.90;;;;;;5067564;28;20220;-76
2021/08/11 03:16:38;;;;;;;2.85;2.65;;;20.30;99.90;;;;;;5063252;28;20226;-76
2021/08/11 03:19:06;;;;;;;2.83;2.63;;;20.30;99.90;;;;;;5061887;28;20218;-76
2021/08/11 03:21:33;;;;;;;3.47;3.10;;;20.40;99.90;;;;;;5061202;28;20649;-76
2021/08/11 03:24:00;;;;;;;2.85;2.65;;;20.40;99.90;;;;;;5060125;28;20218;-76
2021/08/11 03:26:28;;;;;;;3.10;2.83;;;20.40;99.90;;;;;;5062366;28;20226;-77
2021/08/11 03:29:00;;;;;;;2.70;2.50;;;20.40;99.90;;;;;;5070825;28;20222;-77
2021/08/11 03:31:27;;;;;;;2.67;2.47;;;20.40;99.90;;;;;;5066083;28;20299;-76
2021/08/11 03:33:55;;;;;;;3.70;2.88;;;20.40;99.90;;;;;;5074968;22;20718;-74
2021/08/11 03:36:22;;;;;;;4.35;3.00;;;20.40;99.90;;;;;;5095870;27;20221;-75
2021/08/11 03:38:49;;;;;;;3.42;3.13;;;20.40;99.90;;;;;;5096145;27;20357;-74
2021/08/11 03:41:16;;;;;;;3.28;2.92;;;20.30;99.90;;;;;;5101012;28;20665;-74
2021/08/11 03:43:43;;;;;;;2.88;2.67;;;20.20;99.90;;;;;;5097152;28;20294;-73
2021/08/11 03:46:11;;;;;;;2.95;2.75;;;20.20;99.90;;;;;;5096204;28;20618;-74
2021/08/11 03:48:38;;;;;;;3.60;3.30;;;20.20;99.90;;;;;;5097699;28;20224;-76
2021/08/11 03:51:05;;;;;;;3.53;3.22;;;20.20;99.90;;;;;;5100318;28;20274;-72
2021/08/11 03:53:32;;;;;;;3.33;3.03;;;20.20;99.90;;;;;;5096941;27;20685;-74
2021/08/11 03:55:59;;;;;;;3.42;2.55;;;20.20;99.90;;;;;;5089927;27;20267;-74
2021/08/11 03:58:26;;;;;;;2.88;2.67;;;20.20;99.90;;;;;;5095963;28;20692;-74
2021/08/11 04:00:53;;;;;;;4.13;3.00;;;20.20;99.90;;;;;;5097515;27;20224;-75
2021/08/11 04:03:22;;;;;;;3.28;2.97;;;20.20;99.90;;;;;;5099712;27;20277;-74
2021/08/11 04:05:48;;;;;;;3.03;2.72;;;20.20;99.90;;;;;;5095648;28;20221;-74
2021/08/11 04:08:15;;;;;;;3.30;3.00;;;20.20;99.90;;;;;;5099525;27;20224;-74
2021/08/11 04:10:45;;;;;;;2.70;2.50;;;20.20;99.90;;;;;;5101041;28;20267;-75
2021/08/11 04:13:14;;;;;;;3.10;2.90;;;20.20;99.90;;;;;;5102639;28;20299;-75
2021/08/11 04:15:41;;;;;;;3.20;2.90;;;20.20;99.90;;;;;;5099731;28;20225;-74
2021/08/11 04:18:08;;;;;;;3.35;3.13;;;20.20;99.90;;;;;;5097311;27;20244;-75
2021/08/11 04:20:37;;;;;;;3.20;2.90;;;20.20;99.90;;;;;;5102725;28;20320;-74
2021/08/11 04:23:05;;;;;;;5.18;3.40;;;20.20;99.90;;;;;;5102045;28;20224;-75
2021/08/11 04:25:36;;;;;;;3.00;2.80;;;20.20;99.90;;;;;;5103020;28;20284;-74
2021/08/11 04:28:03;;;;;;;3.05;2.85;;;20.20;99.90;;;;;;5101840;28;20359;-74
2021/08/11 04:30:30;;;;;;;3.65;3.35;;;20.20;99.90;;;;;;5099773;28;20224;-74
2021/08/11 04:32:57;;;;;;;3.13;2.80;;;20.20;99.90;;;;;;5097610;28;20635;-74
2021/08/11 04:35:24;;;;;;;3.08;2.80;;;20.20;99.90;;;;;;5099741;27;20213;-74
2021/08/11 04:37:52;;;;;;;2.67;2.47;;;20.20;99.90;;;;;;5095636;27;20596;-74
2021/08/11 04:40:19;;;;;;;3.58;2.70;;;20.20;99.90;;;;;;5098739;27;20237;-73
2021/08/11 04:42:46;;;;;;;3.15;2.80;;;20.20;99.90;;;;;;5100792;28;20555;-74
2021/08/11 04:45:13;;;;;;;3.10;2.90;;;20.20;99.90;;;;;;5101744;28;20259;-74
2021/08/11 04:47:40;;;;;;;3.20;3.00;;;20.10;99.90;;;;;;5101182;28;20249;-74
2021/08/11 04:50:09;;;;;;;3.25;3.05;;;20.10;99.90;;;;;;5099634;28;20229;-75
2021/08/11 04:52:36;;;;;;;3.22;2.92;;;20.20;99.90;;;;;;5097897;27;20224;-74
2021/08/11 04:55:05;;;;;;;3.22;3.00;;;20.30;99.90;;;;;;5099858;28;20224;-75
2021/08/11 04:57:32;;;;;;;2.90;2.60;;;20.40;99.90;;;;;;5096443;28;20646;-74
2021/08/11 04:59:59;;;;;;;3.05;2.85;;;20.60;99.90;;;;;;5099006;28;20745;-76
2021/08/11 05:02:26;;;;;;;3.40;3.17;;;20.70;99.90;;;;;;5094837;27;20217;-74
2021/08/11 05:04:53;;;;;;;3.65;3.25;;;20.90;99.90;;;;;;5093138;28;20654;-74
2021/08/11 05:07:20;;;;;;;3.45;3.15;;;21.00;99.90;;;;;;5095132;28;20228;-75
2021/08/11 05:09:47;;;;;;;4.20;3.20;;;21.00;99.90;;;;;;5099759;28;20216;-74
2021/08/11 05:12:16;;;;;;;2.90;2.70;;;21.20;99.90;;;;;;5101710;28;20234;-75
2021/08/11 05:14:43;;;;;;;3.13;2.92;;;21.30;99.90;;;;;;5102223;28;20273;-74
2021/08/11 05:17:10;;;;;;;3.22;2.92;;;21.50;99.90;;;;;;5103007;28;20303;-74
2021/08/11 05:19:37;;;;;;;3.50;3.20;;;21.60;99.90;;;;;;5098560;28;20249;-75
2021/08/11 05:22:04;;;;;;;3.17;2.97;;;21.80;99.90;;;;;;5096457;28;20427;-74
2021/08/11 05:24:31;;;;;;;3.65;3.33;;;22.00;99.90;;;;;;5098916;28;20217;-75
2021/08/11 05:26:58;;;;;;;4.22;3.38;;;22.20;99.90;;;;;;5100945;28;20217;-74
2021/08/11 05:29:27;;;;;;;3.83;3.42;;;22.30;99.90;;;;;;5102315;28;20221;-75
2021/08/11 05:31:54;;;;;;;3.25;2.95;;;22.40;99.90;;;;;;5096528;28;20214;-74
2021/08/11 05:34:21;;;;;;;3.38;3.08;;;22.50;99.90;;;;;;5098234;28;20224;-73
2021/08/11 05:36:48;;;;;;;4.00;3.40;;;22.60;99.90;;;;;;5099240;27;20652;-75
2021/08/11 05:39:15;;;;;;;3.50;3.20;;;22.60;99.90;;;;;;5102761;28;20311;-74
2021/08/11 05:41:44;;;;;;;4.35;3.70;;;22.70;99.90;;;;;;5100491;28;20273;-75
2021/08/11 05:44:11;;;;;;;3.80;3.42;;;22.80;99.90;;;;;;5095334;28;20289;-72
2021/08/11 05:46:39;;;;;;;3.78;3.25;;;22.80;99.90;;;;;;5087507;28;20228;-74
2021/08/11 05:49:07;;;;;;;4.80;3.42;;;22.90;99.90;;;;;;5081292;27;20286;-76
2021/08/11 05:51:36;;;;;;;5.03;4.57;;;23.00;99.90;;;;;;5090859;27;20225;-73
2021/08/11 05:54:04;;;;;;;4.35;3.90;;;23.10;99.90;;;;;;5086570;28;20809;-75
2021/08/11 05:56:31;;;;;;;4.85;4.40;;;23.10;99.90;;;;;;5090743;27;20282;-74
2021/08/11 05:58:58;;;;;;;4.00;3.65;;;23.10;99.90;;;;;;5094366;27;20220;-74
2021/08/11 06:01:25;;;;;;;5.93;3.90;;;23.10;99.90;;;;;;5087631;28;20233;-73
2021/08/11 06:03:54;;;;;;;4.05;3.60;;;23.10;99.90;;;;;;5091899;27;20261;-75
2021/08/11 06:06:21;;;;;;;3.75;3.10;;;23.10;99.90;;;;;;5089645;27;20580;-75
2021/08/11 06:08:48;;;;;;;4.05;3.60;;;23.20;99.90;;;;;;5094902;27;20213;-76
2021/08/11 06:11:15;;;;;;;3.75;3.45;;;23.50;99.90;;;;;;5088713;27;20229;-75
2021/08/11 06:13:42;;;;;;;3.88;3.58;;;23.70;99.90;;;;;;5094185;27;20221;-75
2021/08/11 06:16:09;;;;;;;3.83;3.53;;;23.80;99.90;;;;;;5092623;28;20332;-76
2021/08/11 06:18:36;;;;;;;4.18;3.75;;;23.90;99.90;;;;;;5092997;28;20727;-75
2021/08/11 06:21:05;;;;;;;5.22;4.28;;;24.00;99.90;;;;;;5093917;27;20666;-74
2021/08/11 06:23:35;;;;;;;5.07;4.13;;;24.10;99.90;;;;;;5090535;28;20528;-75
2021/08/11 06:26:02;;;;;;;5.68;4.35;;;24.10;99.90;;;;;;5095011;27;20227;-74
2021/08/11 06:28:29;;;;;;;6.00;4.35;;;23.90;99.90;;;;;;5089105;27;20224;-75
2021/08/11 06:30:56;;;;;;;5.28;4.78;;;23.80;99.90;;;;;;5095395;28;20273;-75
2021/08/11 06:33:23;;;;;;;5.13;4.63;;;23.70;99.90;;;;;;5089986;27;20281;-75
2021/08/11 06:35:50;;;;;;;5.25;4.63;;;23.50;99.90;;;;;;5097218;28;20270;-75
2021/08/11 06:38:22;;;;;;;5.07;4.57;;;23.50;99.90;;;;;;5088734;28;20216;-76
2021/08/11 06:40:49;;;;;;;5.05;4.32;;;23.50;99.90;;;;;;5091997;28;20292;-75
2021/08/11 06:43:17;;;;;;;5.03;4.28;;;23.60;99.90;;;;;;5087375;28;20284;-75
2021/08/11 06:45:44;;;;;;;5.10;4.50;;;23.70;99.90;;;;;;5096208;28;20239;-75
2021/08/11 06:48:12;;;;;;;5.22;4.30;;;23.80;99.90;;;;;;5090909;27;20274;-73
2021/08/11 06:50:39;;;;;;;5.20;4.70;;;23.90;99.90;;;;;;5093681;28;20225;-74
2021/08/11 06:53:06;;;;;;;5.65;3.97;;;24.00;99.90;;;;;;5093368;28;20852;-74
2021/08/11 06:55:35;;;;;;;5.88;4.68;;;24.10;99.90;;;;;;5089990;28;20274;-73
2021/08/11 06:58:02;;;;;;;5.78;4.55;;;24.10;99.90;;;;;;5094761;27;20216;-74
2021/08/11 07:00:29;;;;;;;4.75;4.35;;;24.20;99.90;;;;;;5091780;27;20228;-73
2021/08/11 07:02:56;;;;;;;4.90;4.40;;;24.50;99.90;;;;;;5087079;27;20477;-76
2021/08/11 07:05:23;;;;;;;5.00;3.88;;;24.60;99.90;;;;;;5091400;27;20232;-75
2021/08/11 07:07:50;;;;;;;6.22;4.45;;;24.70;99.90;;;;;;5090368;27;20346;-76
2021/08/11 07:10:17;;;;;;;5.30;4.75;;;24.90;99.90;;;;;;5090200;28;20545;-75
2021/08/11 07:12:46;;;;;;;5.65;4.57;;;25.00;99.90;;;;;;5088840;27;20221;-75
2021/08/11 07:15:13;;;;;;;5.10;4.63;;;25.20;99.90;;;;;;5092993;28;20946;-76
2021/08/11 07:17:53;;;;;;;4.90;4.25;;;25.10;99.90;;;;;;5087295;27;20224;-76
2021/08/11 07:20:21;;;;;;;6.85;4.60;;;25.10;99.90;;;;;;5084922;27;20229;-76
2021/08/11 07:22:48;;;;;;;4.93;4.53;;;25.20;99.90;;;;;;5089980;28;20228;-75
2021/08/11 07:25:15;;;;;;;5.65;4.10;;;25.10;99.90;;;;;;5092269;28;20294;-75
2021/08/11 07:27:42;;;;;;;5.57;4.55;;;25.10;99.90;;;;;;5090539;27;20723;-75
2021/08/11 07:30:11;;;;;;;4.72;4.15;;;25.10;99.90;;;;;;5093216;28;20232;-76
2021/08/11 07:32:39;;;;;;;6.03;4.75;;;25.10;99.90;;;;;;5092233;27;20233;-76
2021/08/11 07:35:07;;;;;;;4.88;4.03;;;25.10;99.90;;;;;;5093897;27;20227;-75
2021/08/11 07:37:44;;;;;;;4.95;4.55;;;25.20;99.90;;;;;;5085211;28;20217;-75
2021/08/11 07:40:13;;;;;;;4.85;4.30;;;25.40;99.90;;;;;;5091633;28;20232;-72
2021/08/11 07:42:40;;;;;;;4.35;3.95;;;25.50;99.90;;;;;;5085503;27;20584;-71
2021/08/11 07:45:08;;;;;;;4.93;3.97;;;25.80;99.90;;;;;;5094052;28;20350;-72
2021/08/11 07:47:36;;;;;;;4.45;4.05;;;25.80;99.90;;;;;;5086253;27;20221;-72
2021/08/11 07:50:05;;;;;;;4.53;4.13;;;25.80;99.90;;;;;;5091400;27;20707;-72
2021/08/11 07:52:32;;;;;;;6.13;4.93;;;26.00;99.90;;;;;;5085225;28;20236;-75
2021/08/11 07:54:59;;;;;;;5.32;4.43;;;26.00;99.90;;;;;;5093348;28;20216;-72
2021/08/11 07:57:26;;;;;;;7.40;5.28;;;26.00;99.90;;;;;;5094824;28;20900;-75
2021/08/11 07:59:53;;;;;;;4.50;4.18;;;26.00;99.90;;;;;;5088809;28;20217;-75
2021/08/11 08:02:20;;;;;;;5.95;4.55;;;26.10;99.90;;;;;;5087672;28;20220;-75
2021/08/11 08:04:52;;;;;;;6.43;4.78;;;26.10;99.90;;;;;;5091541;27;20592;-73
2021/08/11 08:07:19;;;;;;;6.18;5.07;;;26.00;99.90;;;;;;5099060;27;20353;-74
2021/08/11 08:09:46;;;;;;;5.25;4.45;;;26.20;99.90;;;;;;5096637;28;20221;-74
2021/08/11 08:12:13;;;;;;;5.32;4.82;;;26.60;99.90;;;;;;5093868;27;20286;-74
2021/08/11 08:14:40;;;;;;;5.70;4.80;;;26.80;99.90;;;;;;5086410;28;21046;-75
2021/08/11 08:17:09;;;;;;;6.50;4.50;;;26.90;99.90;;;;;;5096457;28;20571;-73
2021/08/11 08:19:35;;;;;;;5.45;4.90;;;26.90;99.90;;;;;;5092180;28;20220;-74
2021/08/11 08:22:04;;;;;;;6.40;5.20;;;27.00;99.90;;;;;;5091636;28;20229;-76
2021/08/11 08:24:32;;;;;;;4.97;4.32;;;26.90;99.90;;;;;;5089483;28;20561;-74
2021/08/11 08:27:00;;;;;;;5.20;4.70;;;27.00;99.90;;;;;;5094705;28;20236;-76
2021/08/11 08:29:27;;;;;;;5.43;4.93;;;27.00;99.90;;;;;;5098870;28;20265;-76
2021/08/11 08:31:54;;;;;;;5.40;4.60;;;27.00;99.90;;;;;;5091401;28;20220;-75
2021/08/11 08:34:21;;;;;;;5.20;4.78;;;27.00;99.90;;;;;;5094343;28;20220;-73
2021/08/11 08:36:48;;;;;;;4.35;4.05;;;27.10;99.90;;;;;;5092449;28;20254;-75
2021/08/11 08:39:16;;;;;;;5.10;4.55;;;27.20;99.90;;;;;;5093162;28;20213;-76
2021/08/11 08:41:45;;;;;;;5.45;4.95;;;27.20;99.90;;;;;;5091311;28;20224;-74
2021/08/11 08:44:13;;;;;;;4.63;4.22;;;27.40;99.90;;;;;;5093702;28;20606;-76
2021/08/11 08:46:42;;;;;;;6.10;4.32;;;27.70;99.90;;;;;;5095041;28;20228;-74
2021/08/11 08:49:10;;;;;;;4.93;4.53;;;27.90;99.90;;;;;;5090591;28;20636;-73
2021/08/11 08:51:45;;;;;;;6.13;4.78;;;28.00;99.90;;;;;;5096144;28;20229;-73
2021/08/11 08:54:12;;;;;;;6.47;4.70;;;27.90;99.90;;;;;;5095580;28;20465;-76
2021/08/11 08:56:42;;;;;;;7.00;5.47;;;27.70;99.90;;;;;;5088959;28;20833;-74
2021/08/11 08:59:09;;;;;;;6.05;5.43;;;27.50;99.90;;;;;;5090251;28;20224;-75
2021/08/11 09:01:36;;;;;;;4.68;4.28;;;27.50;99.90;;;;;;5095816;28;20261;-74
2021/08/11 09:04:03;;;;;;;5.53;4.68;;;27.70;99.90;;;;;;5096576;28;20224;-74
2021/08/11 09:06:33;;;;;;;4.70;4.30;;;27.70;99.90;;;;;;5091977;28;20221;-73
2021/08/11 09:09:05;;;;;;;4.93;4.32;;;27.90;99.90;;;;;;5092497;28;20293;-75
2021/08/11 09:11:33;;;;;;;5.10;4.65;;;28.00;99.90;;;;;;5089715;28;20287;-75
2021/08/11 09:14:23;;;;;;;5.30;4.45;;;28.00;99.90;;;;;;5092777;28;20221;-74
2021/08/11 09:16:51;;;;;;;4.97;4.30;;;28.10;99.90;;;;;;5091744;28;20655;-75
2021/08/11 09:19:19;;;;;;;5.05;4.65;;;28.20;99.90;;;;;;5092035;28;20683;-75
2021/08/11 09:22:00;;;;;;;5.30;4.80;;;28.10;99.90;;;;;;5089285;28;20762;-76
2021/08/11 09:24:28;;;;;;;6.53;5.00;;;28.10;99.90;;;;;;5085470;28;20280;-74
2021/08/11 09:26:55;;;;;;;5.57;5.00;;;28.10;99.90;;;;;;5088788;27;20665;-74
2021/08/11 09:29:24;;;;;;;5.15;4.55;;;28.40;99.90;;;;;;5092300;27;20274;-75
2021/08/11 09:32:06;;;;;;;5.15;3.92;;;28.50;99.90;;;;;;5100225;28;20221;-76
2021/08/11 09:34:44;;;;;;;4.75;4.32;;;28.70;99.90;;;;;;5096468;28;20221;-75
2021/08/11 09:37:12;;;;;;;5.18;4.60;;;28.80;99.90;;;;;;5101823;27;20334;-76
2021/08/11 09:39:40;;;;;;;5.20;4.63;;;29.10;99.90;;;;;;5093196;27;20233;-74
2021/08/11 09:42:07;;;;;;;5.18;4.40;;;29.20;99.90;;;;;;5091766;28;20221;-75
2021/08/11 09:44:39;;;;;;;5.30;4.80;;;29.20;99.90;;;;;;5093527;27;20270;-74
2021/08/11 09:47:12;;;;;;;4.70;4.30;;;29.20;99.90;;;;;;5095570;27;20919;-75
2021/08/11 09:49:39;;;;;;;5.18;4.60;;;29.10;99.90;;;;;;5098287;27;20294;-75
2021/08/11 09:52:07;;;;;;;5.70;5.10;;;29.10;99.90;;;;;;5089605;27;20242;-73
2021/08/11 09:54:34;;;;;;;5.35;4.85;;;29.40;99.90;;;;;;5095208;27;20662;-75
2021/08/11 09:57:01;;;;;;;6.25;4.97;;;29.50;99.90;;;;;;5092376;27;20232;-76
2021/08/11 09:59:29;;;;;;;6.10;5.50;;;29.50;99.90;;;;;;5095586;27;20705;-72
2021/08/11 10:02:18;;;;;;;6.53;4.63;;;29.60;99.90;;;;;;5095071;27;20228;-75
2021/08/11 10:04:45;;;;;;;6.10;5.47;;;29.80;99.90;;;;;;5097248;27;20269;-74
2021/08/11 10:07:12;;;;;;;5.40;4.72;;;30.00;99.90;;;;;;5093970;28;20221;-75
2021/08/11 10:09:40;;;;;;;6.43;4.82;;;29.90;99.90;;;;;;5091860;28;20225;-75
2021/08/11 10:12:25;;;;;;;5.20;4.43;;;30.10;99.90;;;;;;5094749;28;20236;-76
2021/08/11 10:14:52;;;;;;;5.22;4.70;;;30.20;99.90;;;;;;5089891;27;20448;-77
2021/08/11 10:17:21;;;;;;;4.80;4.30;;;30.20;99.90;;;;;;5094887;27;20232;-75
2021/08/11 10:19:50;;;;;;;5.22;4.72;;;30.30;99.90;;;;;;5084695;28;20499;-75
2021/08/11 10:22:20;;;;;;;4.68;4.25;;;30.10;99.90;;;;;;5095845;28;20572;-75
2021/08/11 10:24:47;;;;;;;5.72;4.88;;;30.10;99.90;;;;;;5091802;27;20221;-74
2021/08/11 10:27:17;;;;;;;4.20;3.80;;;30.20;99.90;;;;;;5097249;27;20212;-75
2021/08/11 10:29:45;;;;;;;5.80;4.35;;;30.10;99.90;;;;;;5095279;27;20509;-73
2021/08/11 10:32:13;;;;;;;5.47;4.63;;;29.90;99.90;;;;;;5097976;27;20371;-74
2021/08/11 10:34:43;;;;;;;5.95;4.78;;;29.80;99.90;;;;;;5096319;28;20224;-76
2021/08/11 10:37:13;;;;;;;5.00;4.50;;;29.80;99.90;;;;;;5098770;28;20228;-73
2021/08/11 10:39:41;;;;;;;4.88;4.38;;;29.90;99.90;;;;;;5093120;27;20340;-74
2021/08/11 10:42:13;;;;;;;5.20;4.70;;;29.80;99.90;;;;;;5098428;28;20263;-73
2021/08/11 10:44:40;;;;;;;5.43;4.93;;;29.90;99.90;;;;;;5095358;27;20232;-74
2021/08/11 10:47:09;;;;;;;5.88;4.55;;;30.00;99.90;;;;;;5092491;28;20216;-74
2021/08/11 10:52:32;;;;;;;5.13;4.60;;;30.00;99.90;;;;;;5100390;27;20602;-72
2021/08/11 10:55:01;;;;;;;4.85;4.45;;;29.90;99.90;;;;;;5072829;27;20224;-75
2021/08/11 10:57:48;;;;;;;6.97;4.93;;;30.00;99.90;;;;;;5074475;28;20213;-77
2021/08/11 11:00:42;;;;;;;5.38;4.75;;;30.00;99.90;;;;;;5079617;28;20361;-75
2021/08/11 11:03:11;;;;;;;6.28;4.57;;;30.30;99.90;;;;;;5035531;28;20225;-75
2021/08/11 11:06:04;;;;;;;4.35;3.95;;;30.30;99.90;;;;;;5070795;28;20221;-75
2021/08/11 11:08:34;;;;;;;4.90;4.40;;;30.40;99.90;;;;;;5073418;28;20759;-75
2021/08/11 11:11:36;;;;;;;4.97;4.50;;;30.40;99.90;;;;;;5076769;27;20229;-73
2021/08/11 11:14:06;;;;;;;4.03;3.63;;;30.40;99.90;;;;;;5077968;28;20233;-76
2021/08/11 11:17:04;;;;;;;5.18;4.13;;;30.40;99.90;;;;;;5076714;27;20296;-76
2021/08/11 11:19:31;;;;;;;7.55;4.60;;;30.60;99.90;;;;;;5072275;28;20217;-77
2021/08/11 11:21:58;;;;;;;4.47;4.07;;;30.70;99.90;;;;;;5071767;27;20233;-76
2021/08/11 11:24:49;;;;;;;4.75;4.32;;;30.60;99.90;;;;;;5070395;28;20221;-74
2021/08/11 11:27:54;;;;;;;4.32;3.92;;;30.80;99.90;;;;;;5069932;27;20343;-77
2021/08/11 11:30:38;;;;;;;4.45;4.05;;;31.00;99.90;;;;;;5011225;28;20235;-75
2021/08/11 11:33:34;;;;;;;3.97;3.60;;;31.00;99.90;;;;;;5066206;28;20224;-74
2021/08/11 11:36:21;;;;;;;3.75;3.35;;;30.60;99.90;;;;;;5073756;27;20222;-75
2021/08/11 11:39:10;;;;;;;3.85;3.55;;;30.30;99.90;;;;;;5071331;27;20213;-73
2021/08/11 11:41:59;;;;;;;3.70;3.20;;;30.00;99.90;;;;;;5072555;28;20214;-76
2021/08/11 11:44:46;;;;;;;3.40;3.10;;;29.80;99.90;;;;;;5068756;28;20233;-76
2021/08/11 11:47:16;;;;;;;3.35;3.05;;;29.80;99.90;;;;;;5073022;28;20229;-76
2021/08/11 11:49:43;;;;;;;3.65;3.35;;;29.80;99.90;;;;;;5074276;28;21392;-73
2021/08/11 11:52:15;;;;;;;3.63;3.33;;;30.00;99.90;;;;;;5070026;28;20231;-74
2021/08/11 11:54:47;;;;;;;3.53;3.25;;;30.40;99.90;;;;;;5072857;27;20262;-75
2021/08/11 11:57:17;;;;;;;3.95;3.58;;;30.50;99.90;;;;;;5073419;27;20221;-75
2021/08/11 11:59:45;;;;;;;5.55;4.03;;;30.40;99.90;;;;;;5070143;28;20327;-74
2021/08/11 12:02:22;;;;;;;4.28;3.83;;;30.20;99.90;;;;;;5064011;28;20238;-76
2021/08/11 12:05:02;;;;;;;3.78;3.47;;;30.10;99.90;;;;;;5053035;28;20218;-74
2021/08/11 12:07:29;;;;;;;3.88;3.47;;;30.00;99.90;;;;;;5055841;28;20228;-73
2021/08/11 12:09:56;;;;;;;4.00;3.70;;;30.00;99.90;;;;;;5057461;28;20225;-75
2021/08/11 12:12:25;;;;;;;4.57;4.03;;;30.10;99.90;;;;;;5054502;28;20584;-74
2021/08/11 12:14:52;;;;;;;4.18;3.78;;;30.20;99.90;;;;;;5056722;28;20218;-75
2021/08/11 12:17:29;;;;;;;3.28;2.97;;;30.20;99.90;;;;;;5055218;28;20230;-74
2021/08/11 12:19:56;;;;;;;3.63;3.33;;;30.10;99.90;;;;;;5057213;28;20309;-74
2021/08/11 12:22:34;;;;;;;3.80;3.30;;;29.90;99.90;;;;;;5059526;28;20221;-78
2021/08/11 12:25:01;;;;;;;5.60;3.42;;;29.70;99.90;;;;;;5056559;28;20226;-76
2021/08/11 12:27:29;;;;;;;4.10;3.45;;;29.70;99.90;;;;;;5056938;28;20229;-75
2021/08/11 12:30:16;;;;;;;3.35;3.05;;;29.60;99.90;;;;;;5055871;28;20234;-74
2021/08/11 12:32:43;;;;;;;3.22;3.00;;;29.60;99.90;;;;;;5054981;28;20909;-75
2021/08/11 12:35:12;;;;;;;3.60;3.30;;;29.70;99.90;;;;;;5055636;28;20225;-75
2021/08/11 12:37:45;;;;;;;3.90;3.45;;;30.30;99.90;;;;;;5058773;28;20233;-72
2021/08/11 12:40:30;;;;;;;3.90;3.60;;;30.90;99.90;;;;;;5055730;28;20864;-75
2021/08/11 12:43:00;;;;;;;3.10;2.90;;;31.40;99.90;;;;;;5057315;28;20722;-76
2021/08/11 12:45:44;;;;;;;14.50;3.85;;;31.80;99.90;;;;;;5052917;28;20953;-76
2021/08/11 12:48:28;;;;;;;6.70;4.45;;;31.90;99.90;;;;;;5054982;28;20225;-77
2021/08/11 12:50:56;;;;;;;4.32;3.45;;;31.80;99.90;;;;;;5055356;28;20275;-75
2021/08/11 12:53:24;;;;;;;4.75;4.35;;;31.90;99.90;;;;;;5059314;28;20238;-74
2021/08/11 12:56:30;;;;;;;4.90;4.40;;;31.90;99.90;;;;;;5054121;28;20787;-77
2021/08/11 12:59:04;;;;;;;5.57;4.35;;;31.70;99.90;;;;;;5056190;28;20885;-77
2021/08/11 13:01:34;;;;;;;5.22;4.72;;;31.30;99.90;;;;;;5055564;28;20250;-73
2021/08/11 13:04:02;;;;;;;5.03;4.53;;;31.00;99.90;;;;;;5055571;28;20222;-77
2021/08/11 13:06:33;;;;;;;5.88;4.30;;;30.70;99.90;;;;;;5057858;28;20225;-76